createdAt,value
2017-06-10T00:00:21.477Z,15.70
2017-06-10T00:02:50.207Z,15.50
2017-06-10T00:05:16.716Z,15.60
2017-06-10T00:07:44.087Z,15.70
2017-06-10T00:10:10.335Z,15.80
2017-06-10T00:12:37.312Z,15.90
2017-06-10T00:15:03.600Z,15.90
2017-06-10T00:17:29.948Z,15.80
2017-06-10T00:19:56.880Z,15.70
2017-06-10T00:22:23.095Z,15.70
2017-06-10T00:24:49.264Z,15.80
2017-06-10T00:27:15.450Z,15.80
2017-06-10T00:29:41.609Z,15.80
2017-06-10T00:32:08.591Z,15.70
2017-06-10T00:34:34.855Z,15.70
2017-06-10T00:37:01.044Z,15.60
2017-06-10T00:39:27.285Z,15.50
2017-06-10T00:41:53.457Z,15.40
2017-06-10T00:44:20.223Z,15.40
2017-06-10T00:46:47.176Z,15.30
2017-06-10T00:49:13.336Z,15.20
2017-06-10T00:51:39.575Z,15.10
2017-06-10T00:54:05.777Z,15.00
2017-06-10T00:56:31.946Z,14.90
2017-06-10T00:58:58.177Z,14.90
2017-06-10T01:01:24.332Z,14.90
2017-06-10T01:03:51.251Z,14.90
2017-06-10T01:06:17.505Z,14.90
2017-06-10T01:08:43.651Z,15.10
2017-06-10T01:11:09.855Z,15.00
2017-06-10T01:13:36.815Z,14.70
2017-06-10T01:16:03.776Z,14.60
2017-06-10T01:18:30.014Z,14.60
2017-06-10T01:20:56.187Z,14.60
2017-06-10T01:23:22.411Z,14.70
2017-06-10T01:25:48.631Z,14.40
2017-06-10T01:28:14.880Z,14.40
2017-06-10T01:30:41.134Z,14.50
2017-06-10T01:33:07.335Z,14.50
2017-06-10T01:35:33.589Z,14.60
2017-06-10T01:38:00.535Z,14.70
2017-06-10T01:40:27.448Z,14.60
2017-06-10T01:42:53.706Z,14.60
2017-06-10T01:45:20.694Z,14.60
2017-06-10T01:47:46.910Z,14.60
2017-06-10T01:50:13.118Z,14.50
2017-06-10T01:52:39.664Z,14.60
2017-06-10T01:55:05.891Z,14.60
2017-06-10T01:57:32.099Z,14.40
2017-06-10T01:59:59.029Z,14.30
2017-06-10T02:02:25.246Z,14.30
2017-06-10T02:04:51.452Z,14.30
2017-06-10T02:07:17.604Z,14.30
2017-06-10T02:09:43.822Z,14.30
2017-06-10T02:12:10.124Z,14.40
2017-06-10T02:14:36.694Z,14.30
2017-06-10T02:17:02.849Z,14.30
2017-06-10T02:19:29.773Z,14.30
2017-06-10T02:21:55.987Z,14.20
2017-06-10T02:24:22.228Z,14.20
2017-06-10T02:26:48.400Z,14.20
2017-06-10T02:29:14.615Z,14.20
2017-06-10T02:31:41.527Z,14.20
2017-06-10T02:34:07.695Z,14.20
2017-06-10T02:36:34.645Z,14.20
2017-06-10T02:39:01.567Z,14.30
2017-06-10T02:41:28.124Z,14.30
2017-06-10T02:43:55.065Z,14.20
2017-06-10T02:46:22.001Z,14.10
2017-06-10T02:48:48.182Z,14.10
2017-06-10T02:51:14.323Z,13.90
2017-06-10T02:53:40.514Z,13.90
2017-06-10T02:56:06.687Z,13.80
2017-06-10T02:58:32.899Z,13.80
2017-06-10T03:00:59.100Z,13.80
2017-06-10T03:03:25.287Z,13.60
2017-06-10T03:05:51.435Z,13.60
2017-06-10T03:08:18.430Z,13.60
2017-06-10T03:10:44.646Z,13.70
2017-06-10T03:13:11.194Z,13.70
2017-06-10T03:15:37.382Z,13.70
2017-06-10T03:18:03.555Z,13.70
2017-06-10T03:20:29.780Z,13.70
2017-06-10T03:22:55.983Z,13.70
2017-06-10T03:25:22.178Z,13.70
2017-06-10T03:27:49.094Z,13.70
2017-06-10T03:30:15.301Z,13.70
2017-06-10T03:32:41.466Z,13.70
2017-06-10T03:35:07.656Z,13.90
2017-06-10T03:37:33.829Z,13.90
2017-06-10T03:39:59.994Z,13.90
2017-06-10T03:42:26.170Z,13.90
2017-06-10T03:44:52.360Z,14.00
2017-06-10T03:47:18.560Z,14.00
2017-06-10T03:49:46.225Z,14.00
2017-06-10T03:52:13.127Z,14.10
2017-06-10T03:54:39.300Z,14.10
2017-06-10T03:57:06.204Z,14.20
2017-06-10T03:59:32.644Z,14.10
2017-06-10T04:01:58.930Z,14.10
2017-06-10T04:04:25.127Z,14.10
2017-06-10T04:06:52.080Z,14.20
2017-06-10T04:09:19.019Z,14.20
2017-06-10T04:12:00.139Z,14.20
2017-06-10T04:14:26.454Z,14.20
2017-06-10T04:16:52.598Z,14.30
2017-06-10T04:19:18.784Z,14.30
2017-06-10T04:21:45.719Z,14.30
2017-06-10T04:24:11.906Z,14.30
2017-06-10T04:26:38.087Z,14.70
2017-06-10T04:29:05.026Z,14.90
2017-06-10T04:31:31.963Z,15.10
2017-06-10T04:33:58.210Z,15.20
2017-06-10T04:36:25.094Z,15.40
2017-06-10T04:38:51.295Z,15.50
2017-06-10T04:41:17.512Z,15.70
2017-06-10T04:43:44.443Z,15.90
2017-06-10T04:46:10.623Z,16.00
2017-06-10T04:48:36.791Z,16.00
2017-06-10T04:51:02.959Z,16.30
2017-06-10T04:53:29.155Z,16.40
2017-06-10T04:55:56.058Z,16.50
2017-06-10T04:58:22.265Z,16.60
2017-06-10T05:00:48.421Z,16.90
2017-06-10T05:03:14.633Z,17.00
2017-06-10T05:05:40.814Z,17.30
2017-06-10T05:08:07.736Z,17.40
2017-06-10T05:10:33.914Z,17.30
2017-06-10T05:13:00.118Z,17.40
2017-06-10T05:15:26.653Z,17.60
2017-06-10T05:17:53.611Z,17.70
2017-06-10T05:20:20.509Z,18.00
2017-06-10T05:22:46.688Z,18.10
2017-06-10T05:25:13.612Z,18.10
2017-06-10T05:27:39.785Z,18.00
2017-06-10T05:30:05.989Z,18.10
2017-06-10T05:32:32.151Z,18.20
2017-06-10T05:34:58.342Z,18.20
2017-06-10T05:37:25.263Z,18.60
2017-06-10T05:39:51.468Z,18.90
2017-06-10T05:42:17.640Z,18.90
2017-06-10T05:44:44.603Z,19.00
2017-06-10T05:47:10.763Z,19.50
2017-06-10T05:49:37.186Z,19.70
2017-06-10T05:52:03.375Z,19.50
2017-06-10T05:54:30.337Z,19.60
2017-06-10T05:56:56.553Z,19.80
2017-06-10T05:59:23.485Z,20.00
2017-06-10T06:01:50.433Z,20.10
2017-06-10T06:04:16.615Z,20.00
2017-06-10T06:06:42.797Z,20.10
2017-06-10T06:09:09.023Z,20.40
2017-06-10T06:11:36.348Z,20.50
2017-06-10T06:14:02.899Z,20.60
2017-06-10T06:16:29.148Z,20.90
2017-06-10T06:18:56.075Z,20.90
2017-06-10T06:21:23.013Z,20.70
2017-06-10T06:23:49.200Z,20.80
2017-06-10T06:26:15.403Z,21.20
2017-06-10T06:28:42.373Z,21.30
2017-06-10T06:31:08.623Z,21.30
2017-06-10T06:33:34.927Z,21.50
2017-06-10T06:36:01.156Z,21.40
2017-06-10T06:38:27.362Z,21.60
2017-06-10T06:40:54.244Z,22.10
2017-06-10T06:43:20.455Z,22.30
2017-06-10T06:45:46.695Z,22.50
2017-06-10T06:48:12.853Z,22.40
2017-06-10T06:50:39.065Z,22.80
2017-06-10T06:53:05.273Z,22.80
2017-06-10T06:55:32.230Z,23.00
2017-06-10T06:57:58.370Z,23.20
2017-06-10T07:00:24.595Z,23.10
2017-06-10T07:02:50.792Z,23.30
2017-06-10T07:05:17.011Z,23.50
2017-06-10T07:07:43.963Z,23.80
2017-06-10T07:10:10.183Z,24.00
2017-06-10T07:12:37.083Z,24.20
2017-06-10T07:15:03.280Z,24.70
2017-06-10T07:17:29.473Z,24.40
2017-06-10T07:19:56.394Z,24.70
2017-06-10T07:22:22.622Z,24.50
2017-06-10T07:24:48.838Z,24.50
2017-06-10T07:27:15.014Z,25.00
2017-06-10T07:29:41.948Z,25.10
2017-06-10T07:32:08.916Z,25.40
2017-06-10T07:34:35.127Z,25.50
2017-06-10T07:37:02.083Z,25.80
2017-06-10T07:39:28.287Z,26.30
2017-06-10T07:41:54.461Z,26.20
2017-06-10T07:44:20.682Z,26.30
2017-06-10T07:46:46.906Z,26.60
2017-06-10T07:49:13.078Z,26.80
2017-06-10T07:51:39.263Z,26.80
2017-06-10T07:54:05.475Z,26.90
2017-06-10T07:56:31.658Z,27.10
2017-06-10T07:58:57.883Z,27.30
2017-06-10T08:01:24.045Z,27.80
2017-06-10T08:03:50.233Z,27.80
2017-06-10T08:06:16.430Z,28.00
2017-06-10T08:08:42.597Z,28.00
2017-06-10T08:11:08.767Z,28.20
2017-06-10T08:13:35.699Z,28.30
2017-06-10T08:16:01.893Z,28.30
2017-06-10T08:18:28.115Z,27.80
2017-06-10T08:20:54.307Z,27.30
2017-06-10T08:23:21.228Z,26.80
2017-06-10T08:25:47.374Z,26.80
2017-06-10T08:28:14.334Z,26.50
2017-06-10T08:30:40.551Z,26.50
2017-06-10T08:33:06.721Z,26.20
2017-06-10T08:35:33.004Z,26.20
2017-06-10T08:37:59.944Z,26.40
2017-06-10T08:40:26.853Z,26.40
2017-06-10T08:42:53.107Z,26.40
2017-06-10T08:45:19.298Z,26.60
2017-06-10T08:47:45.479Z,26.70
2017-06-10T08:50:12.664Z,26.80
2017-06-10T08:52:38.859Z,26.90
2017-06-10T08:55:05.838Z,27.00
2017-06-10T08:57:32.020Z,26.90
2017-06-10T08:59:58.194Z,26.60
2017-06-10T09:02:24.396Z,27.00
2017-06-10T09:04:51.341Z,27.10
2017-06-10T09:07:18.295Z,27.10
2017-06-10T09:09:44.463Z,27.10
2017-06-10T09:12:10.658Z,27.20
2017-06-10T09:14:36.895Z,27.10
2017-06-10T09:17:03.074Z,27.20
2017-06-10T09:19:29.273Z,27.00
2017-06-10T09:21:55.863Z,27.20
2017-06-10T09:24:24.597Z,27.10
2017-06-10T09:26:50.783Z,27.00
2017-06-10T09:29:17.755Z,27.20
2017-06-10T09:31:43.936Z,27.60
2017-06-10T09:34:10.145Z,27.60
2017-06-10T09:36:36.364Z,27.30
2017-06-10T09:39:03.378Z,27.00
2017-06-10T09:41:29.625Z,27.00
2017-06-10T09:43:55.812Z,27.20
2017-06-10T09:46:22.756Z,27.80
2017-06-10T09:48:48.956Z,28.10
2017-06-10T09:51:15.165Z,28.20
2017-06-10T09:53:41.395Z,27.60
2017-06-10T09:56:07.574Z,27.20
2017-06-10T09:58:33.944Z,26.90
2017-06-10T10:01:00.142Z,28.30
2017-06-10T10:03:26.381Z,29.30
2017-06-10T10:05:52.600Z,29.30
2017-06-10T10:08:18.805Z,28.10
2017-06-10T10:10:45.399Z,28.00
2017-06-10T10:13:11.583Z,27.50
2017-06-10T10:15:38.501Z,29.00
2017-06-10T10:18:04.725Z,29.00
2017-06-10T10:20:30.915Z,28.50
2017-06-10T10:22:57.174Z,27.90
2017-06-10T10:25:23.412Z,27.20
2017-06-10T10:27:49.604Z,26.60
2017-06-10T10:30:15.862Z,27.00
2017-06-10T10:32:42.066Z,28.30
2017-06-10T10:35:08.270Z,31.00
2017-06-10T10:37:35.232Z,31.30
2017-06-10T10:40:01.765Z,30.60
2017-06-10T10:42:27.976Z,28.80
2017-06-10T10:44:55.567Z,27.40
2017-06-10T10:47:21.884Z,27.10
2017-06-10T10:49:48.109Z,27.30
2017-06-10T10:52:14.307Z,29.00
2017-06-10T10:54:40.534Z,29.40
2017-06-10T10:57:06.746Z,29.40
2017-06-10T10:59:32.953Z,28.90
2017-06-10T11:01:59.187Z,28.00
2017-06-10T11:04:25.459Z,28.30
2017-06-10T11:06:51.610Z,28.90
2017-06-10T11:09:17.781Z,29.80
2017-06-10T11:11:43.973Z,29.90
2017-06-10T11:14:10.174Z,30.70
2017-06-10T11:16:36.345Z,31.30
2017-06-10T11:19:02.577Z,31.00
2017-06-10T11:21:28.732Z,29.80
2017-06-10T11:23:54.923Z,29.00
2017-06-10T11:26:21.148Z,28.30
2017-06-10T11:28:47.349Z,27.60
2017-06-10T11:31:14.286Z,28.60
2017-06-10T11:33:40.565Z,28.60
2017-06-10T11:36:06.759Z,28.10
2017-06-10T11:38:33.721Z,26.60
2017-06-10T11:40:59.935Z,26.60
2017-06-10T11:43:27.548Z,26.30
2017-06-10T11:45:53.751Z,26.30
2017-06-10T11:48:19.933Z,28.10
2017-06-10T11:50:46.856Z,28.60
2017-06-10T11:53:13.049Z,28.50
2017-06-10T11:55:39.277Z,28.10
2017-06-10T11:58:05.522Z,26.60
2017-06-10T12:00:31.713Z,26.10
2017-06-10T12:02:58.234Z,26.10
2017-06-10T12:05:25.311Z,27.40
2017-06-10T12:07:51.514Z,29.10
2017-06-10T12:10:18.474Z,30.00
2017-06-10T12:12:45.405Z,30.20
2017-06-10T12:15:12.373Z,30.20
2017-06-10T12:17:38.941Z,30.50
2017-06-10T12:20:05.138Z,30.50
2017-06-10T12:22:31.321Z,30.90
2017-06-10T12:24:57.554Z,31.20
2017-06-10T12:27:27.567Z,31.30
2017-06-10T12:29:53.866Z,31.00
2017-06-10T12:32:20.053Z,30.90
2017-06-10T12:34:46.989Z,31.70
2017-06-10T12:37:13.293Z,30.90
2017-06-10T12:39:39.506Z,30.80
2017-06-10T12:42:05.735Z,29.80
2017-06-10T12:44:32.035Z,29.80
2017-06-10T12:46:58.249Z,29.90
2017-06-10T12:49:25.210Z,30.20
2017-06-10T12:51:51.464Z,30.20
2017-06-10T12:54:17.660Z,29.80
2017-06-10T12:56:44.640Z,29.30
2017-06-10T12:59:10.799Z,29.30
2017-06-10T13:01:36.999Z,28.80
2017-06-10T13:04:03.224Z,28.40
2017-06-10T13:06:29.443Z,28.60
2017-06-10T13:08:55.618Z,29.40
2017-06-10T13:11:36.765Z,30.20
2017-06-10T13:14:02.953Z,30.90
2017-06-10T13:16:29.888Z,29.60
2017-06-10T13:18:56.087Z,29.50
2017-06-10T13:21:22.262Z,30.60
2017-06-10T13:23:49.198Z,30.70
2017-06-10T13:26:15.390Z,30.70
2017-06-10T13:28:41.597Z,29.10
2017-06-10T13:31:07.766Z,28.70
2017-06-10T13:33:33.984Z,27.80
2017-06-10T13:36:00.248Z,27.50
2017-06-10T13:38:26.420Z,27.40
2017-06-10T13:40:52.647Z,29.20
2017-06-10T13:43:18.791Z,29.30
2017-06-10T13:45:52.959Z,30.40
2017-06-10T13:48:19.161Z,31.20
2017-06-10T13:50:46.106Z,30.10
2017-06-10T13:53:13.060Z,29.20
2017-06-10T13:55:42.350Z,28.40
2017-06-10T13:58:08.544Z,28.30
2017-06-10T14:00:34.897Z,28.10
2017-06-10T14:03:01.116Z,27.70
2017-06-10T14:05:27.356Z,27.50
2017-06-10T14:07:53.532Z,27.40
2017-06-10T14:10:19.756Z,27.00
2017-06-10T14:12:45.968Z,27.00
2017-06-10T14:15:12.876Z,27.00
2017-06-10T14:17:39.066Z,27.00
2017-06-10T14:20:05.303Z,26.90
2017-06-10T14:22:31.456Z,26.70
2017-06-10T14:24:57.647Z,26.60
2017-06-10T14:27:23.849Z,26.30
2017-06-10T14:29:50.797Z,26.20
2017-06-10T14:32:17.002Z,26.20
2017-06-10T14:34:43.223Z,26.10
2017-06-10T14:37:09.399Z,26.10
2017-06-10T14:39:35.570Z,26.30
2017-06-10T14:42:01.810Z,26.50
2017-06-10T14:44:27.981Z,26.10
2017-06-10T14:46:54.143Z,25.90
2017-06-10T14:49:20.373Z,25.90
2017-06-10T14:51:46.567Z,25.90
2017-06-10T14:54:12.836Z,25.90
2017-06-10T14:56:39.007Z,25.70
2017-06-10T14:59:05.943Z,25.50
2017-06-10T15:01:32.139Z,25.40
2017-06-10T15:03:58.331Z,25.30
2017-06-10T15:06:24.535Z,25.30
2017-06-10T15:08:51.463Z,25.50
2017-06-10T15:11:17.674Z,25.50
2017-06-10T15:13:43.865Z,25.70
2017-06-10T15:16:10.411Z,25.70
2017-06-10T15:18:36.595Z,25.70
2017-06-10T15:21:02.891Z,25.60
2017-06-10T15:23:29.118Z,25.40
2017-06-10T15:25:56.043Z,25.40
2017-06-10T15:28:22.213Z,25.00
2017-06-10T15:30:48.428Z,24.90
2017-06-10T15:33:14.627Z,24.70
2017-06-10T15:35:40.848Z,24.80
2017-06-10T15:38:07.111Z,24.80
2017-06-10T15:40:33.278Z,24.70
2017-06-10T15:43:00.225Z,24.50
2017-06-10T15:45:27.151Z,24.40
2017-06-10T15:47:53.339Z,24.40
2017-06-10T15:50:19.563Z,24.50
2017-06-10T15:52:45.727Z,24.40
2017-06-10T15:55:12.143Z,24.40
2017-06-10T15:57:38.344Z,24.30
2017-06-10T16:00:04.587Z,24.30
2017-06-10T16:02:30.821Z,24.30
2017-06-10T16:04:57.122Z,24.30
2017-06-10T16:07:23.399Z,24.30
2017-06-10T16:09:49.582Z,24.20
2017-06-10T16:12:15.780Z,22.00
2017-06-10T16:14:42.344Z,24.30
2017-06-10T16:17:08.510Z,24.30
2017-06-10T16:19:34.706Z,24.40
2017-06-10T16:22:00.864Z,24.40
2017-06-10T16:24:27.068Z,24.30
2017-06-10T16:26:53.254Z,24.30
2017-06-10T16:29:19.426Z,24.30
2017-06-10T16:31:45.579Z,24.30
2017-06-10T16:34:11.818Z,24.20
2017-06-10T16:36:38.038Z,24.30
2017-06-10T16:39:04.271Z,24.10
2017-06-10T16:41:45.399Z,24.00
2017-06-10T16:44:12.362Z,24.00
2017-06-10T16:46:38.563Z,24.00
2017-06-10T16:49:05.451Z,23.90
2017-06-10T16:51:31.638Z,23.90
2017-06-10T16:53:58.703Z,23.80
2017-06-10T16:56:24.904Z,23.80
2017-06-10T16:58:51.194Z,23.80
2017-06-10T17:01:17.363Z,23.90
2017-06-10T17:03:43.556Z,23.90
2017-06-10T17:06:09.801Z,23.90
2017-06-10T17:08:36.039Z,23.90
2017-06-10T17:11:02.270Z,23.90
2017-06-10T17:13:28.455Z,23.90
2017-06-10T17:15:54.654Z,23.90
2017-06-10T17:18:21.620Z,23.80
2017-06-10T17:20:47.792Z,23.70
2017-06-10T17:23:14.039Z,23.70
2017-06-10T17:25:40.251Z,23.60
2017-06-10T17:28:06.449Z,23.60
2017-06-10T17:30:32.635Z,23.60
2017-06-10T17:32:59.623Z,23.60
2017-06-10T17:35:25.755Z,23.60
2017-06-10T17:37:51.930Z,23.60
2017-06-10T17:40:18.896Z,23.50
2017-06-10T17:42:45.163Z,23.50
2017-06-10T17:45:11.334Z,23.60
2017-06-10T17:47:37.582Z,23.50
2017-06-10T17:50:04.487Z,23.50
2017-06-10T17:52:30.763Z,23.50
2017-06-10T17:54:56.971Z,23.50
2017-06-10T17:57:38.815Z,23.40
2017-06-10T18:00:05.095Z,23.30
2017-06-10T18:05:00.015Z,23.40
2017-06-10T18:07:26.239Z,23.30
2017-06-10T18:09:53.184Z,23.30
2017-06-10T18:12:20.206Z,23.20
2017-06-10T18:14:46.376Z,23.30
2017-06-10T18:17:13.315Z,23.20
2017-06-10T18:19:40.283Z,23.20
2017-06-10T18:22:06.512Z,23.30
2017-06-10T18:24:32.736Z,23.20
2017-06-10T18:27:05.067Z,23.20
2017-06-10T18:29:31.268Z,23.20
2017-06-10T18:32:03.505Z,23.10
2017-06-10T18:34:29.725Z,23.10
2017-06-10T18:36:55.915Z,23.20
2017-06-10T18:39:22.132Z,23.10
2017-06-10T18:41:48.315Z,23.00
2017-06-10T18:44:14.484Z,23.00
2017-06-10T18:46:40.697Z,23.00
2017-06-10T18:49:06.902Z,23.00
2017-06-10T18:51:33.155Z,22.90
2017-06-10T18:53:59.349Z,22.90
2017-06-10T18:56:26.310Z,22.90
2017-06-10T18:58:52.507Z,22.80
2017-06-10T19:01:18.684Z,22.80
2017-06-10T19:03:44.900Z,22.80
2017-06-10T19:06:11.092Z,22.80
2017-06-10T19:08:38.032Z,22.70
2017-06-10T19:11:04.247Z,22.70
2017-06-10T19:13:31.214Z,22.60
2017-06-10T19:15:58.947Z,22.60
2017-06-10T19:18:25.203Z,22.50
2017-06-10T19:20:52.268Z,22.40
2017-06-10T19:23:19.236Z,22.40
2017-06-10T19:25:45.399Z,22.40
2017-06-10T19:28:11.576Z,22.40
2017-06-10T19:30:39.215Z,22.30
2017-06-10T19:33:05.365Z,22.20
2017-06-10T19:35:32.299Z,22.20
2017-06-10T19:37:59.259Z,22.10
2017-06-10T19:40:26.181Z,22.10
2017-06-10T19:42:52.381Z,22.10
2017-06-10T19:45:18.562Z,22.10
2017-06-10T19:47:44.740Z,22.00
2017-06-10T19:50:11.581Z,21.60
2017-06-10T19:52:37.775Z,22.00
2017-06-10T19:55:04.014Z,21.90
2017-06-10T19:57:30.169Z,21.90
2017-06-10T19:59:56.340Z,21.90
2017-06-10T20:02:23.363Z,21.90
2017-06-10T20:04:49.535Z,21.80
2017-06-10T20:07:15.742Z,21.80
2017-06-10T20:09:42.746Z,21.70
2017-06-10T20:12:08.986Z,21.70
2017-06-10T20:14:35.260Z,21.60
2017-06-10T20:17:01.478Z,21.60
2017-06-10T20:19:28.412Z,21.50
2017-06-10T20:24:22.855Z,21.50
2017-06-10T20:26:49.051Z,21.60
2017-06-10T20:29:15.320Z,21.40
2017-06-10T20:31:41.579Z,21.30
2017-06-10T20:34:07.799Z,21.30
2017-06-10T20:36:33.975Z,21.20
2017-06-10T20:39:00.962Z,21.10
2017-06-10T20:41:27.202Z,21.10
2017-06-10T20:43:54.586Z,21.00
2017-06-10T20:46:21.643Z,21.00
2017-06-10T20:48:48.592Z,21.00
2017-06-10T20:51:15.617Z,21.00
2017-06-10T20:53:41.973Z,21.00
2017-06-10T20:56:23.547Z,20.90
2017-06-10T20:58:49.731Z,20.90
2017-06-10T21:01:16.145Z,20.90
2017-06-10T21:03:42.496Z,20.80
2017-06-10T21:06:08.849Z,20.80
2017-06-10T21:08:35.289Z,20.80
2017-06-10T21:11:02.125Z,20.70
2017-06-10T21:13:28.322Z,20.70
2017-06-10T21:15:54.579Z,20.70
2017-06-10T21:18:20.750Z,20.70
2017-06-10T21:20:48.573Z,20.60
2017-06-10T21:23:14.784Z,20.70
2017-06-10T21:25:41.022Z,20.60
2017-06-10T21:28:07.191Z,20.60
2017-06-10T21:30:34.230Z,20.50
2017-06-10T21:33:00.464Z,20.50
2017-06-10T21:35:26.618Z,20.50
2017-06-10T21:37:52.873Z,20.40
2017-06-10T21:40:19.235Z,20.40
2017-06-10T21:42:45.416Z,20.30
2017-06-10T21:45:11.647Z,20.20
2017-06-10T21:47:37.817Z,20.20
2017-06-10T21:50:04.382Z,20.20
2017-06-10T21:52:30.631Z,20.20
2017-06-10T21:54:57.559Z,20.20
2017-06-10T21:57:23.728Z,20.20
2017-06-10T21:59:50.021Z,20.20
2017-06-10T22:02:16.980Z,20.20
2017-06-10T22:04:43.153Z,20.20
2017-06-10T22:07:09.375Z,20.20
2017-06-10T22:09:35.615Z,20.10
2017-06-10T22:12:01.814Z,20.10
2017-06-10T22:14:29.109Z,20.00
2017-06-10T22:16:55.288Z,20.00
2017-06-10T22:19:21.465Z,20.00
2017-06-10T22:21:48.087Z,20.00
2017-06-10T22:24:29.195Z,20.00
2017-06-10T22:26:55.659Z,20.00
2017-06-10T22:29:21.839Z,19.90
2017-06-10T22:31:48.248Z,19.90
2017-06-10T22:34:14.443Z,19.80
2017-06-10T22:36:41.818Z,19.80
2017-06-10T22:39:08.018Z,19.80
2017-06-10T22:41:35.008Z,19.80
2017-06-10T22:44:01.913Z,19.80
2017-06-10T22:46:28.921Z,19.70
2017-06-10T22:48:56.125Z,19.70
2017-06-10T22:51:22.297Z,19.70
2017-06-10T22:53:48.450Z,19.70
2017-06-10T22:56:14.662Z,19.60
2017-06-10T22:58:40.859Z,19.60
2017-06-10T23:01:07.081Z,19.60
2017-06-10T23:03:34.024Z,19.60
2017-06-10T23:06:00.310Z,19.60
2017-06-10T23:08:26.623Z,19.50
2017-06-10T23:10:53.922Z,19.50
2017-06-10T23:13:20.127Z,19.50
2017-06-10T23:15:47.255Z,19.50
2017-06-10T23:18:13.502Z,19.40
2017-06-10T23:20:40.712Z,19.40
2017-06-10T23:23:06.931Z,19.30
2017-06-10T23:25:33.108Z,19.30
2017-06-10T23:27:59.285Z,19.30
2017-06-10T23:30:25.495Z,19.20
2017-06-10T23:32:53.568Z,19.20
2017-06-10T23:35:20.500Z,19.20
2017-06-10T23:37:47.483Z,19.20
2017-06-10T23:40:13.663Z,19.20
2017-06-10T23:42:39.883Z,19.20
2017-06-10T23:45:06.071Z,19.10
2017-06-10T23:47:32.255Z,19.20
2017-06-10T23:49:59.246Z,19.20
2017-06-10T23:52:25.400Z,19.20
2017-06-10T23:54:51.550Z,19.10
2017-06-10T23:57:17.738Z,19.00
2017-06-10T23:59:43.948Z,19.00
